sensor_id;sensor_type;location;lat;lon;timestamp;temperature;humidity
80426;DHT22;69766;51.476;5.704;2023-08-17T00:00:39;18.80;99.90
80426;DHT22;69766;51.476;5.704;2023-08-17T00:03:04;18.70;99.90
80426;DHT22;69766;51.476;5.704;2023-08-17T00:05:30;18.70;99.90
80426;DHT22;69766;51.476;5.704;2023-08-17T00:07:59;18.70;99.90
80426;DHT22;69766;51.476;5.704;2023-08-17T00:10:25;18.70;99.90
80426;DHT22;69766;51.476;5.704;2023-08-17T00:12:50;18.60;99.90
80426;DHT22;69766;51.476;5.704;2023-08-17T00:15:16;18.60;99.90
80426;DHT22;69766;51.476;5.704;2023-08-17T00:17:42;18.60;99.90
80426;DHT22;69766;51.476;5.704;2023-08-17T00:20:08;18.50;99.90
80426;DHT22;69766;51.476;5.704;2023-08-17T00:22:35;18.50;99.90
80426;DHT22;69766;51.476;5.704;2023-08-17T00:25:01;18.50;99.90
80426;DHT22;69766;51.476;5.704;2023-08-17T00:27:28;18.50;99.90
80426;DHT22;69766;51.476;5.704;2023-08-17T00:29:54;18.50;99.90
80426;DHT22;69766;51.476;5.704;2023-08-17T00:32:19;18.50;99.90
80426;DHT22;69766;51.476;5.704;2023-08-17T00:34:46;18.40;99.90
80426;DHT22;69766;51.476;5.704;2023-08-17T00:37:14;18.50;99.90
80426;DHT22;69766;51.476;5.704;2023-08-17T00:39:40;18.50;99.90
80426;DHT22;69766;51.476;5.704;2023-08-17T00:42:05;18.40;99.90
80426;DHT22;69766;51.476;5.704;2023-08-17T00:44:33;18.40;99.90
80426;DHT22;69766;51.476;5.704;2023-08-17T00:46:59;18.40;99.90
80426;DHT22;69766;51.476;5.704;2023-08-17T00:49:25;18.40;99.90
80426;DHT22;69766;51.476;5.704;2023-08-17T00:51:51;18.40;99.90
80426;DHT22;69766;51.476;5.704;2023-08-17T00:54:23;18.30;99.90
80426;DHT22;69766;51.476;5.704;2023-08-17T00:56:49;18.30;99.90
80426;DHT22;69766;51.476;5.704;2023-08-17T00:59:15;18.30;99.90
80426;DHT22;69766;51.476;5.704;2023-08-17T01:01:41;18.30;99.90
80426;DHT22;69766;51.476;5.704;2023-08-17T01:04:07;18.30;99.90
80426;DHT22;69766;51.476;5.704;2023-08-17T01:06:33;18.20;99.90
80426;DHT22;69766;51.476;5.704;2023-08-17T01:08:59;18.20;99.90
80426;DHT22;69766;51.476;5.704;2023-08-17T01:16:36;18.00;99.90
80426;DHT22;69766;51.476;5.704;2023-08-17T01:19:03;18.00;99.90
80426;DHT22;69766;51.476;5.704;2023-08-17T01:21:41;17.90;99.90
80426;DHT22;69766;51.476;5.704;2023-08-17T01:24:08;17.90;99.90
80426;DHT22;69766;51.476;5.704;2023-08-17T01:26:34;17.80;99.90
80426;DHT22;69766;51.476;5.704;2023-08-17T01:29:03;17.80;99.90
80426;DHT22;69766;51.476;5.704;2023-08-17T01:31:42;17.80;99.90
80426;DHT22;69766;51.476;5.704;2023-08-17T01:34:14;17.80;99.90
80426;DHT22;69766;51.476;5.704;2023-08-17T01:36:49;17.70;99.90
80426;DHT22;69766;51.476;5.704;2023-08-17T01:39:17;17.60;99.90
80426;DHT22;69766;51.476;5.704;2023-08-17T01:41:46;17.50;99.90
80426;DHT22;69766;51.476;5.704;2023-08-17T01:44:12;17.60;99.90
80426;DHT22;69766;51.476;5.704;2023-08-17T01:46:39;17.60;99.90
80426;DHT22;69766;51.476;5.704;2023-08-17T01:49:05;17.60;99.90
80426;DHT22;69766;51.476;5.704;2023-08-17T01:51:30;17.60;99.90
80426;DHT22;69766;51.476;5.704;2023-08-17T01:53:56;17.60;99.90
80426;DHT22;69766;51.476;5.704;2023-08-17T01:56:21;17.60;99.90
80426;DHT22;69766;51.476;5.704;2023-08-17T01:58:47;17.60;99.90
80426;DHT22;69766;51.476;5.704;2023-08-17T02:01:13;17.60;99.90
80426;DHT22;69766;51.476;5.704;2023-08-17T02:03:39;17.50;99.90
80426;DHT22;69766;51.476;5.704;2023-08-17T02:06:04;17.50;99.90
80426;DHT22;69766;51.476;5.704;2023-08-17T02:08:30;17.50;99.90
80426;DHT22;69766;51.476;5.704;2023-08-17T02:10:56;17.50;99.90
80426;DHT22;69766;51.476;5.704;2023-08-17T02:13:21;17.50;99.90
80426;DHT22;69766;51.476;5.704;2023-08-17T02:15:47;17.50;99.90
80426;DHT22;69766;51.476;5.704;2023-08-17T02:18:13;17.60;99.90
80426;DHT22;69766;51.476;5.704;2023-08-17T02:20:38;17.60;99.90
80426;DHT22;69766;51.476;5.704;2023-08-17T02:23:04;17.60;99.90
80426;DHT22;69766;51.476;5.704;2023-08-17T02:25:30;17.60;99.90
80426;DHT22;69766;51.476;5.704;2023-08-17T02:28:01;17.60;99.90
80426;DHT22;69766;51.476;5.704;2023-08-17T02:30:27;17.60;99.90
80426;DHT22;69766;51.476;5.704;2023-08-17T02:32:53;17.60;99.90
80426;DHT22;69766;51.476;5.704;2023-08-17T02:35:19;17.60;99.90
80426;DHT22;69766;51.476;5.704;2023-08-17T02:37:44;17.60;99.90
80426;DHT22;69766;51.476;5.704;2023-08-17T02:40:10;17.60;99.90
80426;DHT22;69766;51.476;5.704;2023-08-17T02:42:36;17.60;99.90
80426;DHT22;69766;51.476;5.704;2023-08-17T02:45:02;17.60;99.90
80426;DHT22;69766;51.476;5.704;2023-08-17T02:47:27;17.60;99.90
80426;DHT22;69766;51.476;5.704;2023-08-17T02:49:53;17.60;99.90
80426;DHT22;69766;51.476;5.704;2023-08-17T02:52:19;17.60;99.90
80426;DHT22;69766;51.476;5.704;2023-08-17T02:54:45;17.60;99.90
80426;DHT22;69766;51.476;5.704;2023-08-17T02:57:11;17.50;99.90
80426;DHT22;69766;51.476;5.704;2023-08-17T02:59:37;17.50;99.90
80426;DHT22;69766;51.476;5.704;2023-08-17T03:02:03;17.60;99.90
80426;DHT22;69766;51.476;5.704;2023-08-17T03:04:28;17.60;99.90
80426;DHT22;69766;51.476;5.704;2023-08-17T03:06:54;17.50;99.90
80426;DHT22;69766;51.476;5.704;2023-08-17T03:09:19;17.60;99.90
80426;DHT22;69766;51.476;5.704;2023-08-17T03:11:45;17.60;99.90
80426;DHT22;69766;51.476;5.704;2023-08-17T03:14:11;17.60;99.90
80426;DHT22;69766;51.476;5.704;2023-08-17T03:16:37;17.50;99.90
80426;DHT22;69766;51.476;5.704;2023-08-17T03:19:03;17.50;99.90
80426;DHT22;69766;51.476;5.704;2023-08-17T03:21:29;17.60;99.90
80426;DHT22;69766;51.476;5.704;2023-08-17T03:23:55;17.60;99.90
80426;DHT22;69766;51.476;5.704;2023-08-17T03:26:20;17.60;99.90
80426;DHT22;69766;51.476;5.704;2023-08-17T03:28:46;17.60;99.90
80426;DHT22;69766;51.476;5.704;2023-08-17T03:31:12;17.60;99.90
80426;DHT22;69766;51.476;5.704;2023-08-17T03:33:37;17.50;99.90
80426;DHT22;69766;51.476;5.704;2023-08-17T03:36:03;17.50;99.90
80426;DHT22;69766;51.476;5.704;2023-08-17T03:38:29;17.50;99.90
80426;DHT22;69766;51.476;5.704;2023-08-17T03:40:55;17.40;99.90
80426;DHT22;69766;51.476;5.704;2023-08-17T03:43:20;17.40;99.90
80426;DHT22;69766;51.476;5.704;2023-08-17T03:45:46;17.30;99.90
80426;DHT22;69766;51.476;5.704;2023-08-17T03:48:12;17.30;99.90
80426;DHT22;69766;51.476;5.704;2023-08-17T03:50:38;17.30;99.90
80426;DHT22;69766;51.476;5.704;2023-08-17T03:53:03;17.30;99.90
80426;DHT22;69766;51.476;5.704;2023-08-17T03:55:29;17.20;99.90
80426;DHT22;69766;51.476;5.704;2023-08-17T03:57:55;17.20;99.90
80426;DHT22;69766;51.476;5.704;2023-08-17T04:00:24;17.20;99.90
80426;DHT22;69766;51.476;5.704;2023-08-17T04:02:49;17.20;99.90
80426;DHT22;69766;51.476;5.704;2023-08-17T04:05:15;17.20;99.90
80426;DHT22;69766;51.476;5.704;2023-08-17T04:07:44;17.10;99.90
80426;DHT22;69766;51.476;5.704;2023-08-17T04:10:09;17.00;99.90
80426;DHT22;69766;51.476;5.704;2023-08-17T04:12:35;17.00;99.90
80426;DHT22;69766;51.476;5.704;2023-08-17T04:15:01;17.00;99.90
80426;DHT22;69766;51.476;5.704;2023-08-17T04:17:26;16.90;99.90
80426;DHT22;69766;51.476;5.704;2023-08-17T04:19:52;16.90;99.90
80426;DHT22;69766;51.476;5.704;2023-08-17T04:22:18;16.90;99.90
80426;DHT22;69766;51.476;5.704;2023-08-17T04:24:43;16.90;99.90
80426;DHT22;69766;51.476;5.704;2023-08-17T04:27:09;16.80;99.90
80426;DHT22;69766;51.476;5.704;2023-08-17T04:29:37;16.90;99.90
80426;DHT22;69766;51.476;5.704;2023-08-17T04:32:03;16.80;99.90
80426;DHT22;69766;51.476;5.704;2023-08-17T04:34:28;16.80;99.90
80426;DHT22;69766;51.476;5.704;2023-08-17T04:36:54;16.90;99.90
80426;DHT22;69766;51.476;5.704;2023-08-17T04:39:20;16.90;99.90
80426;DHT22;69766;51.476;5.704;2023-08-17T04:41:45;16.90;99.90
80426;DHT22;69766;51.476;5.704;2023-08-17T04:44:11;16.90;99.90
80426;DHT22;69766;51.476;5.704;2023-08-17T04:46:37;16.80;99.90
80426;DHT22;69766;51.476;5.704;2023-08-17T04:49:03;16.80;99.90
80426;DHT22;69766;51.476;5.704;2023-08-17T04:51:28;16.80;99.90
80426;DHT22;69766;51.476;5.704;2023-08-17T04:53:54;16.80;99.90
80426;DHT22;69766;51.476;5.704;2023-08-17T04:56:20;16.80;99.90
80426;DHT22;69766;51.476;5.704;2023-08-17T04:58:46;16.80;99.90
80426;DHT22;69766;51.476;5.704;2023-08-17T05:01:11;16.70;99.90
80426;DHT22;69766;51.476;5.704;2023-08-17T05:03:37;16.60;99.90
80426;DHT22;69766;51.476;5.704;2023-08-17T05:06:03;16.60;99.90
80426;DHT22;69766;51.476;5.704;2023-08-17T05:08:28;16.60;99.90
80426;DHT22;69766;51.476;5.704;2023-08-17T05:10:54;16.60;99.90
80426;DHT22;69766;51.476;5.704;2023-08-17T05:13:20;16.60;99.90
80426;DHT22;69766;51.476;5.704;2023-08-17T05:15:46;16.70;99.90
80426;DHT22;69766;51.476;5.704;2023-08-17T05:18:11;16.70;99.90
80426;DHT22;69766;51.476;5.704;2023-08-17T05:20:40;16.70;99.90
80426;DHT22;69766;51.476;5.704;2023-08-17T05:23:09;16.80;99.90
80426;DHT22;69766;51.476;5.704;2023-08-17T05:25:34;16.80;99.90
80426;DHT22;69766;51.476;5.704;2023-08-17T05:28:03;16.90;99.90
80426;DHT22;69766;51.476;5.704;2023-08-17T05:30:28;16.80;99.90
80426;DHT22;69766;51.476;5.704;2023-08-17T05:32:54;16.80;99.90
80426;DHT22;69766;51.476;5.704;2023-08-17T05:35:20;16.70;99.90
80426;DHT22;69766;51.476;5.704;2023-08-17T05:37:45;16.70;99.90
80426;DHT22;69766;51.476;5.704;2023-08-17T05:40:11;16.70;99.90
80426;DHT22;69766;51.476;5.704;2023-08-17T05:42:37;16.80;99.90
80426;DHT22;69766;51.476;5.704;2023-08-17T05:45:03;16.70;99.90
80426;DHT22;69766;51.476;5.704;2023-08-17T05:47:29;16.70;99.90
80426;DHT22;69766;51.476;5.704;2023-08-17T05:49:54;16.90;99.90
80426;DHT22;69766;51.476;5.704;2023-08-17T05:52:20;17.00;99.90
80426;DHT22;69766;51.476;5.704;2023-08-17T05:54:46;16.90;99.90
80426;DHT22;69766;51.476;5.704;2023-08-17T05:57:11;17.00;99.90
80426;DHT22;69766;51.476;5.704;2023-08-17T05:59:37;17.00;99.90
80426;DHT22;69766;51.476;5.704;2023-08-17T06:02:03;17.00;99.90
80426;DHT22;69766;51.476;5.704;2023-08-17T06:04:28;17.20;99.90
80426;DHT22;69766;51.476;5.704;2023-08-17T06:06:55;17.20;99.90
80426;DHT22;69766;51.476;5.704;2023-08-17T06:09:20;17.30;99.90
80426;DHT22;69766;51.476;5.704;2023-08-17T06:11:46;17.30;99.90
80426;DHT22;69766;51.476;5.704;2023-08-17T06:14:12;17.40;99.90
80426;DHT22;69766;51.476;5.704;2023-08-17T06:16:38;17.40;99.90
80426;DHT22;69766;51.476;5.704;2023-08-17T06:19:03;17.50;99.90
80426;DHT22;69766;51.476;5.704;2023-08-17T06:21:29;17.50;99.90
80426;DHT22;69766;51.476;5.704;2023-08-17T06:23:55;17.50;99.90
80426;DHT22;69766;51.476;5.704;2023-08-17T06:26:20;17.50;99.90
80426;DHT22;69766;51.476;5.704;2023-08-17T06:28:46;17.50;99.90
80426;DHT22;69766;51.476;5.704;2023-08-17T06:31:15;17.60;99.90
80426;DHT22;69766;51.476;5.704;2023-08-17T06:33:40;17.70;99.90
80426;DHT22;69766;51.476;5.704;2023-08-17T06:36:06;18.00;99.90
80426;DHT22;69766;51.476;5.704;2023-08-17T06:38:31;18.10;99.90
80426;DHT22;69766;51.476;5.704;2023-08-17T06:40:57;18.20;99.90
80426;DHT22;69766;51.476;5.704;2023-08-17T06:43:23;18.30;99.90
80426;DHT22;69766;51.476;5.704;2023-08-17T06:45:49;18.20;99.90
80426;DHT22;69766;51.476;5.704;2023-08-17T06:48:14;18.20;99.90
80426;DHT22;69766;51.476;5.704;2023-08-17T06:50:40;18.10;99.90
80426;DHT22;69766;51.476;5.704;2023-08-17T06:53:06;18.40;99.90
80426;DHT22;69766;51.476;5.704;2023-08-17T06:55:32;18.50;99.90
80426;DHT22;69766;51.476;5.704;2023-08-17T06:57:58;18.30;99.90
80426;DHT22;69766;51.476;5.704;2023-08-17T07:00:24;18.30;99.90
80426;DHT22;69766;51.476;5.704;2023-08-17T07:02:50;18.20;99.90
80426;DHT22;69766;51.476;5.704;2023-08-17T07:05:17;18.30;99.90
80426;DHT22;69766;51.476;5.704;2023-08-17T07:07:44;18.10;99.90
80426;DHT22;69766;51.476;5.704;2023-08-17T07:10:10;18.20;99.90
80426;DHT22;69766;51.476;5.704;2023-08-17T07:12:39;18.10;99.90
80426;DHT22;69766;51.476;5.704;2023-08-17T07:15:06;18.10;99.90
80426;DHT22;69766;51.476;5.704;2023-08-17T07:17:32;18.20;99.90
80426;DHT22;69766;51.476;5.704;2023-08-17T07:19:59;18.50;99.90
80426;DHT22;69766;51.476;5.704;2023-08-17T07:22:25;18.40;99.90
80426;DHT22;69766;51.476;5.704;2023-08-17T07:24:51;18.30;99.90
80426;DHT22;69766;51.476;5.704;2023-08-17T07:27:17;18.30;99.90
80426;DHT22;69766;51.476;5.704;2023-08-17T07:29:42;18.20;99.90
80426;DHT22;69766;51.476;5.704;2023-08-17T07:32:08;18.10;99.90
80426;DHT22;69766;51.476;5.704;2023-08-17T07:34:35;18.20;99.90
80426;DHT22;69766;51.476;5.704;2023-08-17T07:37:03;18.30;99.90
80426;DHT22;69766;51.476;5.704;2023-08-17T07:39:29;18.10;99.90
80426;DHT22;69766;51.476;5.704;2023-08-17T07:41:55;18.40;99.90
80426;DHT22;69766;51.476;5.704;2023-08-17T07:44:20;18.40;99.90
80426;DHT22;69766;51.476;5.704;2023-08-17T07:46:46;18.50;99.90
80426;DHT22;69766;51.476;5.704;2023-08-17T07:49:12;18.50;99.90
80426;DHT22;69766;51.476;5.704;2023-08-17T07:51:37;18.60;99.90
80426;DHT22;69766;51.476;5.704;2023-08-17T07:54:03;18.60;99.90
80426;DHT22;69766;51.476;5.704;2023-08-17T07:56:29;18.50;99.90
80426;DHT22;69766;51.476;5.704;2023-08-17T07:58:54;18.40;99.90
80426;DHT22;69766;51.476;5.704;2023-08-17T08:01:20;18.50;99.90
80426;DHT22;69766;51.476;5.704;2023-08-17T08:03:46;18.50;99.90
80426;DHT22;69766;51.476;5.704;2023-08-17T08:06:12;18.60;99.90
80426;DHT22;69766;51.476;5.704;2023-08-17T08:08:39;18.50;99.90
80426;DHT22;69766;51.476;5.704;2023-08-17T08:11:04;18.50;99.90
80426;DHT22;69766;51.476;5.704;2023-08-17T08:13:30;18.50;99.90
80426;DHT22;69766;51.476;5.704;2023-08-17T08:15:58;18.40;99.90
80426;DHT22;69766;51.476;5.704;2023-08-17T08:18:24;18.30;99.90
80426;DHT22;69766;51.476;5.704;2023-08-17T08:20:50;18.40;99.90
80426;DHT22;69766;51.476;5.704;2023-08-17T08:23:16;18.30;99.90
80426;DHT22;69766;51.476;5.704;2023-08-17T08:25:42;18.30;99.90
80426;DHT22;69766;51.476;5.704;2023-08-17T08:28:07;18.30;99.90
80426;DHT22;69766;51.476;5.704;2023-08-17T08:30:34;18.30;99.90
80426;DHT22;69766;51.476;5.704;2023-08-17T08:32:59;18.30;99.90
80426;DHT22;69766;51.476;5.704;2023-08-17T08:35:26;18.50;99.90
80426;DHT22;69766;51.476;5.704;2023-08-17T08:37:53;18.60;99.90
80426;DHT22;69766;51.476;5.704;2023-08-17T08:40:27;18.70;99.90
80426;DHT22;69766;51.476;5.704;2023-08-17T08:42:53;18.90;99.90
80426;DHT22;69766;51.476;5.704;2023-08-17T08:45:20;18.70;99.90
80426;DHT22;69766;51.476;5.704;2023-08-17T08:47:46;18.70;99.90
80426;DHT22;69766;51.476;5.704;2023-08-17T08:50:17;18.80;99.90
80426;DHT22;69766;51.476;5.704;2023-08-17T08:52:53;18.90;99.90
80426;DHT22;69766;51.476;5.704;2023-08-17T08:55:22;19.10;99.90
80426;DHT22;69766;51.476;5.704;2023-08-17T08:57:49;19.00;99.90
80426;DHT22;69766;51.476;5.704;2023-08-17T09:00:16;18.80;99.90
80426;DHT22;69766;51.476;5.704;2023-08-17T09:02:42;18.70;99.90
80426;DHT22;69766;51.476;5.704;2023-08-17T09:05:10;18.60;99.90
80426;DHT22;69766;51.476;5.704;2023-08-17T09:07:37;19.00;99.90
80426;DHT22;69766;51.476;5.704;2023-08-17T09:10:04;18.90;99.90
80426;DHT22;69766;51.476;5.704;2023-08-17T09:12:30;18.80;99.90
80426;DHT22;69766;51.476;5.704;2023-08-17T09:14:56;19.00;99.90
80426;DHT22;69766;51.476;5.704;2023-08-17T09:17:25;19.00;99.90
80426;DHT22;69766;51.476;5.704;2023-08-17T09:19:51;19.00;99.90
80426;DHT22;69766;51.476;5.704;2023-08-17T09:22:24;19.10;99.90
80426;DHT22;69766;51.476;5.704;2023-08-17T09:24:50;19.30;99.90
80426;DHT22;69766;51.476;5.704;2023-08-17T09:27:16;19.20;99.90
80426;DHT22;69766;51.476;5.704;2023-08-17T09:29:48;18.90;99.90
80426;DHT22;69766;51.476;5.704;2023-08-17T09:32:14;18.90;99.90
80426;DHT22;69766;51.476;5.704;2023-08-17T09:34:44;19.00;99.90
80426;DHT22;69766;51.476;5.704;2023-08-17T09:37:12;18.90;99.90
80426;DHT22;69766;51.476;5.704;2023-08-17T09:39:38;19.00;99.90
80426;DHT22;69766;51.476;5.704;2023-08-17T09:42:04;18.90;99.90
80426;DHT22;69766;51.476;5.704;2023-08-17T09:44:33;18.90;99.90
80426;DHT22;69766;51.476;5.704;2023-08-17T09:47:00;18.90;99.90
80426;DHT22;69766;51.476;5.704;2023-08-17T09:49:26;18.80;99.90
80426;DHT22;69766;51.476;5.704;2023-08-17T09:51:59;18.90;99.90
80426;DHT22;69766;51.476;5.704;2023-08-17T09:54:25;19.00;99.90
80426;DHT22;69766;51.476;5.704;2023-08-17T09:56:53;19.00;99.90
80426;DHT22;69766;51.476;5.704;2023-08-17T09:59:20;19.10;99.90
80426;DHT22;69766;51.476;5.704;2023-08-17T10:01:50;19.10;99.90
80426;DHT22;69766;51.476;5.704;2023-08-17T10:04:22;19.10;99.90
80426;DHT22;69766;51.476;5.704;2023-08-17T10:06:52;19.40;99.90
80426;DHT22;69766;51.476;5.704;2023-08-17T10:09:26;19.60;99.90
80426;DHT22;69766;51.476;5.704;2023-08-17T10:11:57;19.60;99.90
80426;DHT22;69766;51.476;5.704;2023-08-17T10:14:29;19.90;99.90
80426;DHT22;69766;51.476;5.704;2023-08-17T10:17:07;20.00;99.90
80426;DHT22;69766;51.476;5.704;2023-08-17T10:19:53;19.90;99.90
80426;DHT22;69766;51.476;5.704;2023-08-17T10:23:00;19.90;99.90
80426;DHT22;69766;51.476;5.704;2023-08-17T10:25:29;20.30;99.90
80426;DHT22;69766;51.476;5.704;2023-08-17T10:27:55;20.50;99.90
80426;DHT22;69766;51.476;5.704;2023-08-17T10:30:21;20.60;99.90
80426;DHT22;69766;51.476;5.704;2023-08-17T10:32:47;20.50;99.90
80426;DHT22;69766;51.476;5.704;2023-08-17T10:35:13;20.80;99.90
80426;DHT22;69766;51.476;5.704;2023-08-17T10:37:40;21.00;99.90
80426;DHT22;69766;51.476;5.704;2023-08-17T10:40:06;21.10;99.90
80426;DHT22;69766;51.476;5.704;2023-08-17T10:42:33;20.90;99.90
80426;DHT22;69766;51.476;5.704;2023-08-17T10:44:59;21.40;99.90
80426;DHT22;69766;51.476;5.704;2023-08-17T10:47:30;21.10;99.90
80426;DHT22;69766;51.476;5.704;2023-08-17T10:49:58;20.90;99.90
80426;DHT22;69766;51.476;5.704;2023-08-17T10:52:29;21.00;99.90
80426;DHT22;69766;51.476;5.704;2023-08-17T10:54:55;20.90;99.90
80426;DHT22;69766;51.476;5.704;2023-08-17T10:57:25;21.20;99.90
80426;DHT22;69766;51.476;5.704;2023-08-17T11:00:13;21.70;99.90
80426;DHT22;69766;51.476;5.704;2023-08-17T11:02:43;21.50;99.90
80426;DHT22;69766;51.476;5.704;2023-08-17T11:05:10;21.90;99.90
80426;DHT22;69766;51.476;5.704;2023-08-17T11:07:44;22.20;99.90
80426;DHT22;69766;51.476;5.704;2023-08-17T11:12:45;22.20;99.90
80426;DHT22;69766;51.476;5.704;2023-08-17T11:15:11;21.80;99.90
80426;DHT22;69766;51.476;5.704;2023-08-17T11:17:36;21.90;99.90
80426;DHT22;69766;51.476;5.704;2023-08-17T11:20:03;22.00;99.90
80426;DHT22;69766;51.476;5.704;2023-08-17T11:22:30;21.90;99.90
80426;DHT22;69766;51.476;5.704;2023-08-17T11:24:55;21.50;99.90
80426;DHT22;69766;51.476;5.704;2023-08-17T11:27:21;21.30;99.90
80426;DHT22;69766;51.476;5.704;2023-08-17T11:29:47;21.20;99.90
80426;DHT22;69766;51.476;5.704;2023-08-17T11:32:16;21.30;99.90
80426;DHT22;69766;51.476;5.704;2023-08-17T11:34:42;21.50;99.90
80426;DHT22;69766;51.476;5.704;2023-08-17T11:37:07;21.20;99.90
80426;DHT22;69766;51.476;5.704;2023-08-17T11:39:36;21.10;99.90
80426;DHT22;69766;51.476;5.704;2023-08-17T11:42:02;21.00;99.90
80426;DHT22;69766;51.476;5.704;2023-08-17T11:44:28;21.60;99.90
80426;DHT22;69766;51.476;5.704;2023-08-17T11:46:54;21.20;99.90
80426;DHT22;69766;51.476;5.704;2023-08-17T11:49:19;21.20;99.90
80426;DHT22;69766;51.476;5.704;2023-08-17T11:51:45;21.30;99.90
80426;DHT22;69766;51.476;5.704;2023-08-17T11:54:10;21.60;99.90
80426;DHT22;69766;51.476;5.704;2023-08-17T11:56:39;21.30;99.90
80426;DHT22;69766;51.476;5.704;2023-08-17T11:59:10;21.70;99.90
80426;DHT22;69766;51.476;5.704;2023-08-17T12:01:45;21.50;99.90
80426;DHT22;69766;51.476;5.704;2023-08-17T12:04:10;21.50;99.90
80426;DHT22;69766;51.476;5.704;2023-08-17T12:06:43;21.20;99.90
80426;DHT22;69766;51.476;5.704;2023-08-17T12:09:12;21.00;99.90
80426;DHT22;69766;51.476;5.704;2023-08-17T12:11:40;20.90;99.90
80426;DHT22;69766;51.476;5.704;2023-08-17T12:14:11;21.00;99.90
80426;DHT22;69766;51.476;5.704;2023-08-17T12:16:47;21.10;99.90
80426;DHT22;69766;51.476;5.704;2023-08-17T12:19:14;21.50;99.90
80426;DHT22;69766;51.476;5.704;2023-08-17T12:21:43;21.30;99.90
80426;DHT22;69766;51.476;5.704;2023-08-17T12:24:09;21.30;99.90
80426;DHT22;69766;51.476;5.704;2023-08-17T12:26:41;21.30;99.90
80426;DHT22;69766;51.476;5.704;2023-08-17T12:29:07;21.00;99.90
80426;DHT22;69766;51.476;5.704;2023-08-17T12:31:34;21.30;99.90
80426;DHT22;69766;51.476;5.704;2023-08-17T12:33:59;21.30;99.90
80426;DHT22;69766;51.476;5.704;2023-08-17T12:36:25;21.50;99.90
80426;DHT22;69766;51.476;5.704;2023-08-17T12:38:51;21.70;99.90
80426;DHT22;69766;51.476;5.704;2023-08-17T12:41:17;21.70;99.90
80426;DHT22;69766;51.476;5.704;2023-08-17T12:43:45;21.90;99.90
80426;DHT22;69766;51.476;5.704;2023-08-17T12:46:11;22.00;99.90
80426;DHT22;69766;51.476;5.704;2023-08-17T12:48:37;21.60;99.90
80426;DHT22;69766;51.476;5.704;2023-08-17T12:51:03;21.60;99.90
80426;DHT22;69766;51.476;5.704;2023-08-17T12:53:29;21.60;99.90
80426;DHT22;69766;51.476;5.704;2023-08-17T12:55:55;21.60;99.90
80426;DHT22;69766;51.476;5.704;2023-08-17T12:58:21;21.70;99.90
80426;DHT22;69766;51.476;5.704;2023-08-17T13:00:47;21.90;99.90
80426;DHT22;69766;51.476;5.704;2023-08-17T13:03:18;22.10;99.90
80426;DHT22;69766;51.476;5.704;2023-08-17T13:05:44;22.00;99.90
80426;DHT22;69766;51.476;5.704;2023-08-17T13:08:09;22.00;99.90
80426;DHT22;69766;51.476;5.704;2023-08-17T13:10:36;21.70;99.90
80426;DHT22;69766;51.476;5.704;2023-08-17T13:13:02;21.60;99.90
80426;DHT22;69766;51.476;5.704;2023-08-17T13:15:29;21.50;99.90
80426;DHT22;69766;51.476;5.704;2023-08-17T13:17:55;21.50;99.90
80426;DHT22;69766;51.476;5.704;2023-08-17T13:20:20;21.60;99.90
80426;DHT22;69766;51.476;5.704;2023-08-17T13:22:46;21.80;99.90
80426;DHT22;69766;51.476;5.704;2023-08-17T13:25:12;21.60;99.90
80426;DHT22;69766;51.476;5.704;2023-08-17T13:27:38;21.70;99.90
80426;DHT22;69766;51.476;5.704;2023-08-17T13:30:04;21.70;99.90
80426;DHT22;69766;51.476;5.704;2023-08-17T13:32:30;21.70;99.90
80426;DHT22;69766;51.476;5.704;2023-08-17T13:34:55;21.60;99.90
80426;DHT22;69766;51.476;5.704;2023-08-17T13:37:21;21.50;99.90
80426;DHT22;69766;51.476;5.704;2023-08-17T13:39:47;21.60;99.90
80426;DHT22;69766;51.476;5.704;2023-08-17T13:42:13;21.90;99.90
80426;DHT22;69766;51.476;5.704;2023-08-17T13:44:39;21.70;99.90
80426;DHT22;69766;51.476;5.704;2023-08-17T13:47:05;21.40;99.90
80426;DHT22;69766;51.476;5.704;2023-08-17T13:49:31;21.50;99.90
80426;DHT22;69766;51.476;5.704;2023-08-17T13:51:56;21.90;99.90
80426;DHT22;69766;51.476;5.704;2023-08-17T13:54:23;22.00;99.90
80426;DHT22;69766;51.476;5.704;2023-08-17T13:56:48;22.10;99.90
80426;DHT22;69766;51.476;5.704;2023-08-17T13:59:14;21.80;99.90
80426;DHT22;69766;51.476;5.704;2023-08-17T14:01:40;21.50;99.90
80426;DHT22;69766;51.476;5.704;2023-08-17T14:04:06;21.50;99.90
80426;DHT22;69766;51.476;5.704;2023-08-17T14:06:37;21.30;99.90
80426;DHT22;69766;51.476;5.704;2023-08-17T14:09:03;21.30;99.90
80426;DHT22;69766;51.476;5.704;2023-08-17T14:11:29;21.30;99.90
80426;DHT22;69766;51.476;5.704;2023-08-17T14:13:55;21.30;99.90
80426;DHT22;69766;51.476;5.704;2023-08-17T14:16:20;21.20;99.90
80426;DHT22;69766;51.476;5.704;2023-08-17T14:18:46;21.30;99.90
80426;DHT22;69766;51.476;5.704;2023-08-17T14:21:12;21.20;99.90
80426;DHT22;69766;51.476;5.704;2023-08-17T14:23:38;21.10;99.90
80426;DHT22;69766;51.476;5.704;2023-08-17T14:26:04;20.80;99.90
80426;DHT22;69766;51.476;5.704;2023-08-17T14:28:32;20.70;99.90
80426;DHT22;69766;51.476;5.704;2023-08-17T14:30:58;20.70;99.90
80426;DHT22;69766;51.476;5.704;2023-08-17T14:33:24;20.90;99.90
80426;DHT22;69766;51.476;5.704;2023-08-17T14:35:49;21.10;99.90
80426;DHT22;69766;51.476;5.704;2023-08-17T14:38:16;21.10;99.90
80426;DHT22;69766;51.476;5.704;2023-08-17T14:40:45;21.20;99.90
80426;DHT22;69766;51.476;5.704;2023-08-17T14:43:14;21.20;99.90
80426;DHT22;69766;51.476;5.704;2023-08-17T14:45:41;21.20;99.90
80426;DHT22;69766;51.476;5.704;2023-08-17T14:48:07;21.20;99.90
80426;DHT22;69766;51.476;5.704;2023-08-17T14:50:34;21.20;99.90
80426;DHT22;69766;51.476;5.704;2023-08-17T14:53:00;21.10;99.90
80426;DHT22;69766;51.476;5.704;2023-08-17T14:55:31;21.10;99.90
80426;DHT22;69766;51.476;5.704;2023-08-17T14:57:57;20.80;99.90
80426;DHT22;69766;51.476;5.704;2023-08-17T15:00:26;20.70;99.90
80426;DHT22;69766;51.476;5.704;2023-08-17T15:03:01;20.70;99.90
80426;DHT22;69766;51.476;5.704;2023-08-17T15:05:26;20.70;99.90
80426;DHT22;69766;51.476;5.704;2023-08-17T15:07:52;20.60;99.90
80426;DHT22;69766;51.476;5.704;2023-08-17T15:10:18;20.60;99.90
80426;DHT22;69766;51.476;5.704;2023-08-17T15:12:44;20.80;99.90
80426;DHT22;69766;51.476;5.704;2023-08-17T15:15:12;20.70;99.90
80426;DHT22;69766;51.476;5.704;2023-08-17T15:17:38;20.70;99.90
80426;DHT22;69766;51.476;5.704;2023-08-17T15:20:04;20.80;99.90
80426;DHT22;69766;51.476;5.704;2023-08-17T15:22:30;20.80;99.90
80426;DHT22;69766;51.476;5.704;2023-08-17T15:24:56;20.70;99.90
80426;DHT22;69766;51.476;5.704;2023-08-17T15:27:21;20.50;99.90
80426;DHT22;69766;51.476;5.704;2023-08-17T15:29:50;20.30;99.90
80426;DHT22;69766;51.476;5.704;2023-08-17T15:32:15;20.40;99.90
80426;DHT22;69766;51.476;5.704;2023-08-17T15:34:41;20.40;99.90